Time;durP1;ratioP1;P1;durP2;ratioP2;P2;SDS_P1;SDS_P2;PMS_P1;PMS_P2;Temp;Humidity;BMP_temperature;BMP_pressure;BME280_temperature;BME280_humidity;BME280_pressure;Samples;Min_cycle;Max_cycle;Signal;HPM_P1;HPM_P2
2021/04/04 00:00:43;;;;;;;12.30;7.03;;;0.60;99.90;;;0.60;100.00;95523.00;2215320;56;26128;-63
2021/04/04 00:03:29;;;;;;;10.70;6.47;;;0.50;99.90;;;0.59;100.00;95520.00;2434348;56;26211;-62
2021/04/04 00:06:16;;;;;;;10.57;6.80;;;0.70;99.90;;;0.87;100.00;95520.00;2215628;56;26136;-60
2021/04/04 00:09:03;;;;;;;13.03;7.50;;;0.70;99.90;;;0.72;100.00;95513.00;2214892;56;26230;-60
2021/04/04 00:11:50;;;;;;;9.93;6.60;;;0.70;99.90;;;0.66;100.00;95510.00;2215693;56;26516;-61
2021/04/04 00:14:37;;;;;;;11.30;6.33;;;0.70;99.90;;;0.65;100.00;95510.00;2434449;56;25993;-62
2021/04/04 00:17:24;;;;;;;10.93;6.77;;;0.70;99.90;;;0.68;100.00;95513.00;2201837;56;26132;-61
2021/04/04 00:20:13;;;;;;;12.83;7.43;;;0.80;99.90;;;0.71;100.00;95507.00;2191720;57;26620;-60
2021/04/04 00:23:00;;;;;;;13.53;6.70;;;0.70;99.90;;;0.69;100.00;95506.00;2211864;57;26114;-59
2021/04/04 00:25:46;;;;;;;10.73;6.50;;;0.80;99.90;;;0.92;100.00;95503.00;2211381;58;26205;-60
2021/04/04 00:28:32;;;;;;;11.10;6.60;;;0.70;99.90;;;0.60;100.00;95500.00;2429258;57;26177;-60
2021/04/04 00:31:19;;;;;;;10.50;7.00;;;0.60;99.90;;;0.51;100.00;95496.00;2210767;58;26576;-61
2021/04/04 00:34:06;;;;;;;11.53;6.47;;;0.40;99.90;;;0.40;100.00;95500.00;2429329;57;26727;-60
2021/04/04 00:36:53;;;;;;;10.50;6.97;;;0.40;99.90;;;0.34;100.00;95491.00;2210486;58;26181;-60
2021/04/04 00:39:39;;;;;;;12.20;6.73;;;0.30;99.90;;;0.22;100.00;95494.00;2210125;58;26169;-62
2021/04/04 00:42:25;;;;;;;15.37;7.03;;;0.30;99.90;;;0.30;100.00;95487.00;2210565;58;26152;-62
2021/04/04 00:45:19;;;;;;;10.70;7.03;;;0.30;99.90;;;0.20;100.00;95501.00;2209016;58;26154;-62
2021/04/04 00:48:09;;;;;;;9.90;6.87;;;0.00;99.90;;;-0.03;100.00;95497.00;2211302;58;26790;-61
2021/04/04 00:50:55;;;;;;;10.33;6.80;;;0.10;99.90;;;-0.03;100.00;95490.00;2428604;57;26221;-61
2021/04/04 00:53:43;;;;;;;14.80;6.90;;;-0.10;99.90;;;-0.11;100.00;95503.00;2210458;58;25185;-61
2021/04/04 00:56:30;;;;;;;10.73;7.10;;;0.00;99.90;;;-0.09;100.00;95498.00;2429251;57;26253;-61
2021/04/04 00:59:16;;;;;;;10.73;6.80;;;-0.10;99.90;;;-0.21;100.00;95491.00;2428760;57;26652;-61
2021/04/04 01:02:03;;;;;;;10.33;7.10;;;-0.20;99.90;;;-0.27;100.00;95496.00;2211008;58;26146;-61
2021/04/04 01:04:50;;;;;;;13.33;7.20;;;-0.30;99.90;;;-0.37;100.00;95490.00;2429361;57;26231;-62
2021/04/04 01:07:37;;;;;;;10.80;6.50;;;-0.40;99.90;;;-0.41;100.00;95491.00;2211556;58;26136;-61
2021/04/04 01:10:27;;;;;;;10.50;6.80;;;-0.40;99.90;;;-0.54;100.00;95498.00;2428900;57;26180;-61
2021/04/04 01:13:22;;;;;;;12.10;6.27;;;-0.70;99.90;;;-0.74;100.00;95492.00;2210765;58;26236;-61
2021/04/04 01:16:14;;;;;;;13.83;5.80;;;-0.80;99.90;;;-0.82;100.00;95499.00;2211164;58;26153;-61
2021/04/04 01:19:08;;;;;;;8.40;6.13;;;-0.80;99.90;;;-0.84;100.00;95498.00;2429247;57;25376;-61
2021/04/04 01:22:03;;;;;;;9.90;6.57;;;-0.70;99.90;;;-0.85;100.00;95499.00;2211468;58;26644;-61
2021/04/04 01:25:04;;;;;;;8.47;6.07;;;-0.80;99.90;;;-0.90;100.00;95507.00;2429226;57;26224;-60
2021/04/04 01:27:55;;;;;;;11.33;6.70;;;-0.80;99.90;;;-0.94;100.00;95509.00;2429436;57;26252;-61
2021/04/04 01:30:46;;;;;;;9.40;6.17;;;-0.90;99.90;;;-0.96;100.00;95504.00;2210965;58;26554;-60
2021/04/04 01:33:34;;;;;;;10.77;6.37;;;-1.00;99.90;;;-1.07;100.00;95503.00;2429176;57;26216;-60
2021/04/04 01:36:21;;;;;;;10.47;6.47;;;-0.90;99.90;;;-1.03;100.00;95505.00;2210892;58;26213;-60
2021/04/04 01:39:11;;;;;;;12.30;6.17;;;-1.00;99.90;;;-1.07;100.00;95503.00;2210200;58;26274;-60
2021/04/04 01:41:59;;;;;;;11.03;6.10;;;-1.00;99.90;;;-1.04;100.00;95508.00;2428851;57;26169;-60
2021/04/04 01:44:48;;;;;;;10.40;5.63;;;-0.90;99.90;;;-1.12;100.00;95494.00;2428919;57;26281;-60
2021/04/04 01:47:35;;;;;;;10.33;6.70;;;-1.00;99.90;;;-1.15;100.00;95500.00;2211602;58;26213;-61
2021/04/04 01:50:22;;;;;;;10.87;7.07;;;-1.10;99.90;;;-1.33;100.00;95497.00;2429071;57;26185;-60
2021/04/04 01:53:10;;;;;;;11.63;7.03;;;-1.10;99.90;;;-1.36;100.00;95501.00;2211368;58;26208;-61
2021/04/04 01:55:58;;;;;;;8.93;6.20;;;-1.20;99.90;;;-1.35;100.00;95502.00;2429238;57;26591;-61
2021/04/04 01:58:46;;;;;;;9.97;6.47;;;-1.30;99.90;;;-1.41;100.00;95494.00;2211653;57;26165;-60
2021/04/04 02:01:33;;;;;;;11.33;6.63;;;-1.30;99.90;;;-1.44;100.00;95488.00;2429261;57;26196;-60
2021/04/04 02:04:22;;;;;;;12.83;6.57;;;-1.30;99.90;;;-1.47;100.00;95495.00;2211526;58;26657;-61
2021/04/04 02:07:10;;;;;;;11.60;6.83;;;-1.30;99.90;;;-1.55;100.00;95490.00;2428998;57;26770;-61
2021/04/04 02:09:58;;;;;;;10.40;6.47;;;-1.30;99.90;;;-1.52;100.00;95497.00;2211262;58;26181;-61
2021/04/04 02:12:46;;;;;;;9.20;5.50;;;-1.30;99.90;;;-1.52;100.00;95497.00;2429564;57;26117;-60
2021/04/04 02:15:34;;;;;;;10.97;6.73;;;-1.40;99.90;;;-1.61;100.00;95497.00;2210923;58;26132;-62
2021/04/04 02:18:21;;;;;;;11.47;5.93;;;-1.30;99.90;;;-1.55;100.00;95498.00;2429029;57;26196;-60
2021/04/04 02:21:07;;;;;;;9.37;6.20;;;-1.40;99.90;;;-1.61;100.00;95497.00;2211146;58;26186;-61
2021/04/04 02:23:54;;;;;;;9.20;6.23;;;-1.50;99.90;;;-1.71;100.00;95497.00;2429248;57;26361;-60
2021/04/04 02:26:40;;;;;;;9.33;6.03;;;-1.50;99.90;;;-1.61;100.00;95503.00;2211531;58;26127;-61
2021/04/04 02:29:26;;;;;;;13.07;6.73;;;-1.40;99.90;;;-1.65;100.00;95494.00;2428885;57;26097;-60
2021/04/04 02:32:14;;;;;;;9.43;6.33;;;-1.40;99.90;;;-1.70;100.00;95499.00;2211048;58;26638;-61
2021/04/04 02:35:03;;;;;;;11.23;6.37;;;-1.60;99.90;;;-1.89;100.00;95496.00;2429055;57;26120;-61
2021/04/04 02:37:50;;;;;;;11.87;6.17;;;-1.60;99.90;;;-1.81;100.00;95497.00;2211801;58;26114;-61
2021/04/04 02:40:38;;;;;;;10.17;6.40;;;-1.70;99.90;;;-1.92;100.00;95494.00;2211349;58;26117;-62
2021/04/04 02:43:29;;;;;;;11.03;6.33;;;-1.70;99.90;;;-1.97;100.00;95488.00;2429192;57;26048;-61
2021/04/04 02:46:20;;;;;;;8.27;5.77;;;-1.70;99.90;;;-2.05;100.00;95493.00;2428768;57;26677;-60
2021/04/04 02:49:10;;;;;;;9.40;6.33;;;-1.80;99.90;;;-2.04;100.00;95500.00;2211045;58;26180;-62
2021/04/04 02:52:01;;;;;;;11.03;6.23;;;-1.80;99.90;;;-2.16;100.00;95502.00;2428387;57;26140;-61
2021/04/04 02:54:52;;;;;;;9.73;6.43;;;-2.00;99.90;;;-2.21;100.00;95499.00;2429577;57;26173;-61
2021/04/04 02:57:40;;;;;;;8.30;5.53;;;-2.00;99.90;;;-2.19;100.00;95497.00;2429254;57;26124;-60
2021/04/04 03:00:27;;;;;;;9.80;6.23;;;-2.10;99.90;;;-2.29;100.00;95500.00;2211198;58;26104;-62
2021/04/04 03:03:16;;;;;;;10.47;6.33;;;-2.10;99.90;;;-2.28;100.00;95497.00;2211396;58;26148;-61
2021/04/04 03:06:08;;;;;;;9.73;5.80;;;-2.00;99.90;;;-2.19;100.00;95493.00;2211104;58;26124;-61
2021/04/04 03:08:55;;;;;;;10.83;5.83;;;-2.00;99.90;;;-2.21;100.00;95500.00;2429139;57;26606;-61
2021/04/04 03:11:42;;;;;;;9.73;6.37;;;-1.90;99.90;;;-2.22;100.00;95498.00;2196557;57;26109;-61
2021/04/04 03:14:30;;;;;;;8.67;5.63;;;-2.00;99.90;;;-2.23;100.00;95498.00;2191391;57;26223;-60
2021/04/04 03:17:19;;;;;;;9.30;5.80;;;-2.10;99.90;;;-2.26;100.00;95491.00;2404785;57;26120;-60
2021/04/04 03:20:09;;;;;;;9.90;5.83;;;-2.00;99.90;;;-2.29;100.00;95499.00;2191381;57;26542;-62
2021/04/04 03:22:57;;;;;;;7.93;5.40;;;-2.00;99.90;;;-2.23;100.00;95499.00;2211676;58;26133;-62
2021/04/04 03:25:46;;;;;;;8.90;5.43;;;-2.00;99.90;;;-2.14;100.00;95487.00;2211198;58;26196;-60
2021/04/04 03:28:33;;;;;;;8.93;5.93;;;-2.10;99.90;;;-2.41;100.00;95490.00;2211528;58;26137;-60
2021/04/04 03:31:20;;;;;;;8.43;6.20;;;-2.20;99.90;;;-2.50;100.00;95495.00;2210849;58;26129;-60
2021/04/04 03:34:07;;;;;;;9.13;5.43;;;-2.20;99.90;;;-2.49;100.00;95492.00;2429120;57;26097;-60
2021/04/04 03:36:55;;;;;;;8.37;5.23;;;-2.40;99.90;;;-2.62;100.00;95493.00;2211253;58;25189;-60
2021/04/04 03:39:42;;;;;;;8.73;5.70;;;-2.30;99.90;;;-2.47;100.00;95495.00;2211702;58;26212;-60
2021/04/04 03:42:29;;;;;;;10.77;6.00;;;-2.30;99.90;;;-2.46;100.00;95492.00;2211543;58;26229;-62
2021/04/04 03:45:18;;;;;;;9.87;5.93;;;-2.30;99.90;;;-2.57;100.00;95492.00;2428598;57;26148;-60
2021/04/04 03:48:06;;;;;;;10.03;5.53;;;-2.50;99.90;;;-2.80;100.00;95498.00;2211235;58;26198;-61
2021/04/04 03:50:54;;;;;;;9.20;6.23;;;-2.60;99.90;;;-2.78;100.00;95506.00;2429447;57;26132;-60
2021/04/04 03:53:44;;;;;;;8.13;5.20;;;-2.50;99.90;;;-2.65;100.00;95500.00;2211673;58;26108;-61
2021/04/04 03:56:35;;;;;;;8.40;5.37;;;-2.50;99.90;;;-2.72;100.00;95495.00;2429735;57;26153;-60
2021/04/04 03:59:23;;;;;;;9.70;5.30;;;-2.50;99.90;;;-2.74;100.00;95504.00;2429166;57;26222;-60
2021/04/04 04:02:10;;;;;;;9.83;5.30;;;-2.50;99.90;;;-2.67;100.00;95491.00;2211171;58;26156;-61
2021/04/04 04:04:58;;;;;;;10.20;5.47;;;-2.50;99.90;;;-2.79;100.00;95501.00;2211495;58;26145;-61
2021/04/04 04:07:46;;;;;;;9.37;5.60;;;-2.60;99.90;;;-2.85;100.00;95501.00;2429561;57;26526;-61
2021/04/04 04:10:33;;;;;;;8.90;5.70;;;-2.70;99.90;;;-2.87;100.00;95496.00;2211168;58;25790;-61
2021/04/04 04:13:20;;;;;;;9.63;5.73;;;-2.60;99.90;;;-2.87;100.00;95500.00;2429489;57;26607;-61
2021/04/04 04:16:10;;;;;;;8.13;4.83;;;-2.60;99.90;;;-2.82;100.00;95495.00;2210834;58;26573;-61
2021/04/04 04:18:56;;;;;;;10.70;5.63;;;-2.60;99.90;;;-2.82;100.00;95495.00;2429243;57;26161;-60
2021/04/04 04:21:43;;;;;;;9.83;5.13;;;-2.60;99.90;;;-2.79;100.00;95496.00;2210378;58;26236;-62
2021/04/04 04:24:30;;;;;;;9.60;5.53;;;-2.60;99.90;;;-2.97;100.00;95494.00;2211496;58;25594;-60
2021/04/04 04:27:18;;;;;;;8.07;5.07;;;-2.70;99.90;;;-2.97;100.00;95493.00;2211267;58;26116;-61
2021/04/04 04:30:09;;;;;;;12.10;5.97;;;-2.80;99.90;;;-3.00;100.00;95489.00;2428578;57;26188;-61
2021/04/04 04:33:00;;;;;;;7.63;5.10;;;-2.80;99.90;;;-3.05;100.00;95493.00;2211663;58;26113;-61
2021/04/04 04:35:49;;;;;;;7.20;4.60;;;-2.90;99.90;;;-3.16;100.00;95488.00;2211515;58;26153;-61
2021/04/04 04:38:37;;;;;;;7.50;4.67;;;-2.90;99.90;;;-3.10;100.00;95494.00;2429523;57;26176;-60
2021/04/04 04:41:25;;;;;;;7.70;4.90;;;-2.80;99.90;;;-3.12;100.00;95494.00;2211884;58;25427;-62
2021/04/04 04:44:18;;;;;;;8.83;5.13;;;-2.90;99.90;;;-3.15;100.00;95492.00;2211135;58;26176;-61
2021/04/04 04:47:05;;;;;;;10.60;6.20;;;-2.90;99.90;;;-3.14;100.00;95488.00;2211395;58;25558;-61
2021/04/04 04:49:51;;;;;;;10.97;5.47;;;-2.90;99.90;;;-3.18;100.00;95487.00;2211735;58;26157;-63
2021/04/04 04:52:38;;;;;;;8.17;5.40;;;-2.90;99.90;;;-3.08;100.00;95490.00;2430197;57;26086;-60
2021/04/04 04:55:26;;;;;;;12.23;5.23;;;-2.90;99.90;;;-2.97;100.00;95490.00;2211497;58;26232;-62
2021/04/04 04:58:13;;;;;;;9.17;5.67;;;-2.90;99.90;;;-3.13;100.00;95497.00;2430084;57;26105;-61
2021/04/04 05:01:03;;;;;;;13.90;5.70;;;-2.90;99.90;;;-3.19;100.00;95485.00;2210662;58;26157;-61
2021/04/04 05:03:49;;;;;;;8.83;5.17;;;-2.90;99.90;;;-3.12;100.00;95486.00;2429610;57;26150;-63
2021/04/04 05:06:37;;;;;;;8.37;5.20;;;-3.00;99.90;;;-3.18;100.00;95484.00;2211105;58;26257;-60
2021/04/04 05:09:24;;;;;;;10.40;5.23;;;-3.00;99.90;;;-3.14;100.00;95488.00;2210203;58;25574;-60
2021/04/04 05:12:14;;;;;;;8.53;5.50;;;-3.10;99.90;;;-3.17;100.00;95489.00;2428808;57;26205;-61
2021/04/04 05:15:03;;;;;;;9.60;5.40;;;-3.10;99.90;;;-3.12;100.00;95487.00;2428636;57;26109;-60
2021/04/04 05:17:51;;;;;;;8.80;4.90;;;-3.00;99.90;;;-2.96;100.00;95485.00;2211333;58;26149;-61
2021/04/04 05:20:39;;;;;;;8.33;5.50;;;-2.80;99.90;;;-2.72;100.00;95485.00;2429443;57;26141;-61
2021/04/04 05:23:26;;;;;;;9.10;5.43;;;-2.80;99.90;;;-2.78;100.00;95482.00;2211794;57;25176;-59
2021/04/04 05:26:14;;;;;;;9.90;6.07;;;-2.60;99.90;;;-2.45;100.00;95473.00;2428887;57;25230;-58
2021/04/04 05:29:03;;;;;;;10.60;5.87;;;-2.50;99.90;;;-2.44;100.00;95487.00;2211060;58;26248;-61
2021/04/04 05:31:52;;;;;;;9.47;5.43;;;-2.60;99.90;;;-2.43;100.00;95489.00;2429292;57;26093;-61
2021/04/04 05:34:40;;;;;;;10.10;5.70;;;-2.60;99.90;;;-2.39;100.00;95485.00;2211543;58;25224;-62
2021/04/04 05:37:27;;;;;;;9.27;5.77;;;-2.50;99.90;;;-2.28;100.00;95486.00;2211686;58;26193;-61
2021/04/04 05:40:24;;;;;;;8.40;5.27;;;-2.30;99.90;;;-2.08;100.00;95472.00;2211318;58;26161;-61
2021/04/04 05:43:14;;;;;;;8.87;5.43;;;-2.10;99.90;;;-1.73;100.00;95478.00;2211674;58;25507;-61
2021/04/04 05:46:09;;;;;;;11.00;5.60;;;-2.00;99.90;;;-1.63;100.00;95477.00;2428275;57;26180;-61
2021/04/04 05:49:03;;;;;;;10.87;5.47;;;-2.10;99.90;;;-1.77;100.00;95472.00;2211590;58;26101;-62
2021/04/04 05:51:59;;;;;;;8.03;5.27;;;-2.10;99.90;;;-1.71;100.00;95480.00;2210856;58;26200;-61
2021/04/04 05:55:05;;;;;;;9.10;5.83;;;-1.90;99.90;;;-1.45;100.00;95478.00;2211517;58;26724;-61
2021/04/04 05:57:59;;;;;;;8.57;5.57;;;-1.20;99.90;;;0.76;100.00;95471.00;2429323;57;26233;-61
2021/04/04 06:00:48;;;;;;;9.27;5.90;;;-0.10;99.90;;;4.25;100.00;95452.00;2211057;58;26177;-61
2021/04/04 06:04:07;;;;;;;8.30;5.30;;;0.90;99.90;;;5.69;100.00;95458.00;2428213;57;26188;-61
2021/04/04 06:07:44;;;;;;;6.77;4.77;;;1.50;99.90;;;6.97;100.00;95451.00;2210561;58;26153;-61
2021/04/04 06:10:45;;;;;;;8.83;4.63;;;2.10;99.90;;;7.52;100.00;95451.00;2211627;58;26230;-61
2021/04/04 06:13:54;;;;;;;9.50;5.60;;;2.40;99.90;;;8.15;100.00;95451.00;2429624;57;26261;-62
2021/04/04 06:16:51;;;;;;;7.37;5.07;;;4.00;99.90;;;9.86;99.49;95446.00;2196637;57;26200;-61
2021/04/04 06:19:48;;;;;;;7.20;5.20;;;5.80;99.90;;;11.43;80.58;95452.00;2405471;57;26284;-61
2021/04/04 06:22:44;;;;;;;7.23;5.10;;;4.90;99.90;;;9.80;85.35;95457.00;2405003;57;26673;-61
2021/04/04 06:25:57;;;;;;;8.00;5.03;;;4.60;99.90;;;9.25;99.02;95457.00;2191763;57;26160;-60
2021/04/04 06:28:55;;;;;;;8.07;4.47;;;4.60;99.90;;;10.22;94.92;95455.00;2191537;57;26109;-60
2021/04/04 06:32:06;;;;;;;6.27;4.67;;;6.10;99.90;;;11.72;76.45;95450.00;2211297;57;26168;-64
2021/04/04 06:34:56;;;;;;;8.30;5.07;;;4.90;99.90;;;9.06;94.59;95452.00;2211456;58;26587;-60
2021/04/04 06:38:11;;;;;;;5.20;4.27;;;4.30;99.90;;;8.25;100.00;95451.00;2429223;57;26292;-62
2021/04/04 06:41:07;;;;;;;6.37;4.43;;;6.80;99.90;;;12.18;78.25;95440.00;2428948;57;26141;-60
2021/04/04 06:44:06;;;;;;;8.40;3.83;;;9.50;99.90;;;14.02;60.37;95434.00;2429549;57;26701;-60
2021/04/04 06:47:02;;;;;;;6.23;4.00;;;7.40;99.90;;;12.28;65.00;95432.00;2210412;58;26209;-63
2021/04/04 06:50:10;;;;;;;5.10;3.90;;;7.90;99.90;;;12.76;62.55;95436.00;2210971;58;26202;-60
2021/04/04 06:53:13;;;;;;;4.93;3.70;;;8.10;99.90;;;11.45;69.79;95437.00;2211167;58;26200;-60
2021/04/04 06:56:13;;;;;;;6.27;3.97;;;9.30;99.90;;;13.95;58.51;95427.00;2429010;57;26109;-60
2021/04/04 06:59:16;;;;;;;7.90;4.10;;;8.20;99.90;;;12.54;61.71;95430.00;2429177;57;26169;-60
2021/04/04 07:02:05;;;;;;;5.87;4.37;;;6.50;99.90;;;11.66;72.60;95437.00;2428640;57;26112;-60
2021/04/04 07:04:56;;;;;;;6.33;4.70;;;6.00;99.90;;;10.87;84.58;95437.00;2211609;57;26101;-60
2021/04/04 07:08:14;;;;;;;6.43;4.73;;;5.80;99.90;;;10.33;92.04;95428.00;2428999;57;26225;-60
2021/04/04 07:11:33;;;;;;;5.20;4.30;;;6.10;99.90;;;10.84;92.29;95437.00;2210935;57;26197;-60
2021/04/04 07:14:49;;;;;;;5.60;4.20;;;7.90;99.90;;;13.32;65.08;95431.00;2210728;58;26148;-62
2021/04/04 07:18:13;;;;;;;6.70;4.23;;;7.30;99.90;;;13.33;67.38;95426.00;2429020;57;26268;-62
2021/04/04 07:21:39;;;;;;;4.97;3.70;;;7.40;99.90;;;13.04;63.38;95427.00;2211059;58;27281;-63
2021/04/04 07:25:08;;;;;;;5.20;3.77;;;7.40;99.90;;;13.13;65.68;95412.00;2429024;57;26244;-62
2021/04/04 07:28:29;;;;;;;4.37;3.37;;;10.80;99.90;;;17.58;44.84;95416.00;2211235;58;26633;-61
2021/04/04 07:31:22;;;;;;;5.00;3.27;;;11.90;99.90;;;16.64;43.70;95416.00;2382768;57;26113;-61
2021/04/04 07:34:15;;;;;;;4.90;3.25;;;13.80;99.90;;;18.80;40.02;95414.00;2211295;58;26283;-60
2021/04/04 07:37:08;;;;;;;5.32;3.37;;;13.40;99.90;;;17.96;39.88;95408.00;2211134;58;26584;-60
2021/04/04 07:40:14;;;;;;;6.32;3.62;;;11.80;99.90;;;16.90;41.41;95413.00;2428783;57;26651;-60
2021/04/04 07:43:05;;;;;;;6.50;3.67;;;12.40;99.90;;;16.06;42.28;95412.00;2428632;57;26683;-60
2021/04/04 07:46:04;;;;;;;5.33;3.50;;;9.80;99.90;;;14.34;51.88;95414.00;2210805;57;26559;-60
2021/04/04 07:49:13;;;;;;;5.53;3.45;;;10.50;99.90;;;16.43;46.24;95410.00;2429263;57;26108;-60
2021/04/04 07:52:05;;;;;;;4.80;3.62;;;11.00;99.90;;;16.66;46.09;95406.00;2211243;58;26136;-60
2021/04/04 07:55:04;;;;;;;5.90;4.20;;;10.30;99.90;;;15.61;48.40;95410.00;2429008;57;26730;-61
2021/04/04 07:58:03;;;;;;;8.13;5.03;;;11.00;99.90;;;16.20;46.43;95409.00;2210568;58;26167;-60
2021/04/04 08:00:58;;;;;;;6.50;3.70;;;10.50;99.90;;;16.26;44.67;95399.00;2209556;58;26169;-60
2021/04/04 08:03:56;;;;;;;6.80;4.72;;;11.20;99.90;;;16.92;44.73;95413.00;2428995;57;26539;-60
2021/04/04 08:06:49;;;;;;;7.03;3.45;;;11.30;99.90;;;17.00;45.03;95413.00;2428883;57;26250;-62
2021/04/04 08:09:47;;;;;;;5.85;3.70;;;11.90;99.90;;;16.86;41.16;95416.00;2211044;58;26129;-61
2021/04/04 08:12:49;;;;;;;8.63;3.78;;;11.70;99.90;;;16.61;41.79;95411.00;2429037;57;26198;-60
2021/04/04 08:15:54;;;;;;;5.07;3.55;;;11.30;99.90;;;16.55;45.19;95409.00;2428741;57;26124;-59
2021/04/04 08:18:41;;;;;;;6.45;3.60;;;11.00;99.90;;;16.21;46.83;95410.00;2428946;57;26567;-58
2021/04/04 08:21:32;;;;;;;6.07;3.85;;;11.70;99.90;;;16.72;42.61;95413.00;2210921;58;26515;-58
2021/04/04 08:24:32;;;;;;;7.10;3.33;;;11.80;99.90;;;16.23;45.12;95416.00;2428427;57;26128;-59
2021/04/04 08:27:25;;;;;;;5.05;3.20;;;11.80;99.90;;;17.21;40.69;95404.00;2428932;57;26196;-59
2021/04/04 08:30:19;;;;;;;4.62;3.22;;;13.40;99.90;;;18.21;37.64;95413.00;2210406;58;26157;-59
2021/04/04 08:33:16;;;;;;;6.10;3.47;;;14.10;97.80;;;17.73;35.56;95404.00;2429152;57;26118;-58
2021/04/04 08:36:07;;;;;;;4.47;3.15;;;12.30;99.90;;;16.59;41.14;95408.00;2210994;58;26287;-58
2021/04/04 08:38:59;;;;;;;3.70;2.90;;;12.60;99.90;;;17.72;37.25;95402.00;2211460;58;26603;-58
2021/04/04 08:41:47;;;;;;;4.97;2.72;;;13.10;98.80;;;18.46;36.22;95395.00;2429216;57;26221;-58
2021/04/04 08:44:41;;;;;;;4.87;3.30;;;12.60;99.90;;;16.71;39.45;95406.00;2211074;58;26731;-58
2021/04/04 08:47:31;;;;;;;4.05;2.58;;;12.40;99.90;;;17.50;37.68;95400.00;2429258;57;26212;-59
2021/04/04 08:50:20;;;;;;;4.78;2.92;;;11.00;98.60;;;14.49;39.28;95412.00;2219054;56;72337;-58
2021/04/04 08:53:28;;;;;;;6.72;3.20;;;11.70;98.00;;;15.37;38.08;95406.00;2458089;56;26232;-58
2021/04/04 08:56:17;;;;;;;4.78;2.58;;;10.40;97.70;;;13.23;40.45;95408.00;2458374;56;26138;-60
2021/04/04 08:59:06;;;;;;;5.50;2.73;;;9.90;98.40;;;12.27;42.63;95407.00;2235755;56;26607;-59
2021/04/04 09:02:02;;;;;;;4.27;2.73;;;9.20;99.50;;;11.02;46.51;95414.00;2458140;56;26677;-58
2021/04/04 09:04:51;;;;;;;6.33;3.13;;;8.50;99.70;;;9.98;48.94;95413.00;2235411;57;26112;-58
2021/04/04 09:07:44;;;;;;;4.03;2.60;;;8.40;99.80;;;9.96;49.98;95412.00;2458720;56;26100;-58
2021/04/04 09:10:33;;;;;;;5.43;2.77;;;8.20;99.90;;;9.54;53.94;95421.00;2458521;56;26212;-59
2021/04/04 09:13:20;;;;;;;7.13;3.40;;;8.00;99.90;;;9.30;58.45;95418.00;2234752;57;26356;-59
2021/04/04 09:16:12;;;;;;;5.10;2.80;;;8.00;99.90;;;9.12;54.83;95415.00;2234834;57;26231;-59
2021/04/04 09:18:59;;;;;;;4.03;2.23;;;7.80;99.40;;;9.08;52.14;95413.00;2235577;57;26167;-59
2021/04/04 09:21:45;;;;;;;3.77;2.20;;;7.60;98.20;;;8.68;50.58;95405.00;2235270;57;26150;-60
2021/04/04 09:24:43;;;;;;;2.70;1.90;;;7.50;97.70;;;8.65;49.75;95414.00;2458710;56;26216;-61
2021/04/04 09:27:41;;;;;;;4.03;2.10;;;7.50;97.20;;;8.91;47.75;95417.00;2458913;56;26260;-59
2021/04/04 09:30:34;;;;;;;5.17;3.30;;;7.70;98.90;;;8.89;52.83;95414.00;2233527;57;26796;-58
2021/04/04 09:33:28;;;;;;;8.53;5.03;;;7.90;99.90;;;9.35;69.16;95415.00;2235577;56;26731;-58
2021/04/04 09:36:15;;;;;;;3.63;3.00;;;8.80;99.90;;;9.93;69.97;95415.00;2458541;56;26232;-61
2021/04/04 09:39:02;;;;;;;7.57;4.80;;;9.60;98.80;;;10.42;52.29;95409.00;2235485;57;26107;-59
2021/04/04 09:41:51;;;;;;;12.17;8.23;;;9.60;99.50;;;10.62;53.77;95410.00;2234441;57;26669;-59
2021/04/04 09:44:37;;;;;;;3.30;2.00;;;9.40;95.10;;;10.50;43.93;95413.00;2235282;57;26824;-59
2021/04/04 09:47:35;;;;;;;3.53;2.17;;;8.70;93.60;;;9.58;42.02;95412.00;2235018;57;26609;-59
2021/04/04 09:50:24;;;;;;;5.80;2.30;;;9.60;95.30;;;11.04;43.58;95409.00;2235382;57;26196;-58
2021/04/04 09:53:10;;;;;;;4.13;2.37;;;9.30;95.20;;;11.12;42.00;95415.00;2458481;56;26151;-59
2021/04/04 09:56:06;;;;;;;5.07;2.23;;;8.70;94.60;;;10.19;42.53;95405.00;2235721;56;26641;-59
2021/04/04 09:58:53;;;;;;;6.43;3.33;;;8.70;96.50;;;10.53;45.58;95409.00;2458945;56;26168;-59
2021/04/04 10:01:45;;;;;;;3.73;2.07;;;10.10;95.50;;;12.83;40.45;95403.00;2235416;57;26098;-59
2021/04/04 10:04:44;;;;;;;4.63;2.20;;;10.10;96.50;;;11.74;44.31;95401.00;2458652;56;26124;-59
2021/04/04 10:07:32;;;;;;;3.57;2.20;;;9.90;95.70;;;11.94;42.55;95395.00;2235828;57;26231;-60
2021/04/04 10:10:30;;;;;;;3.10;2.00;;;11.00;94.60;;;13.61;39.35;95385.00;2235229;56;26191;-59
2021/04/04 10:13:23;;;;;;;4.32;2.47;;;11.90;91.90;;;14.74;34.52;95389.00;2458508;56;26904;-59
2021/04/04 10:16:20;;;;;;;3.60;2.40;;;12.30;92.80;;;15.45;35.24;95384.00;2234766;56;26640;-59
2021/04/04 10:19:09;;;;;;;3.40;2.15;;;12.90;91.60;;;15.75;33.65;95380.00;2235489;57;26140;-59
2021/04/04 10:21:59;;;;;;;3.53;2.20;;;13.60;89.20;;;16.63;30.99;95371.00;2458466;56;26594;-59
2021/04/04 10:24:45;;;;;;;5.00;2.00;;;15.00;83.50;;;19.30;26.82;95370.00;2235641;57;26172;-59
2021/04/04 10:27:31;;;;;;;4.22;2.05;;;15.10;84.00;;;18.10;28.74;95352.00;2235718;56;26135;-60
2021/04/04 10:30:20;;;;;;;3.40;2.20;;;15.90;79.80;;;19.10;26.49;95349.00;2457704;56;26108;-60
2021/04/04 10:33:24;;;;;;;3.80;2.35;;;17.20;75.60;;;19.40;25.43;95347.00;2235211;57;26648;-59
2021/04/04 10:36:17;;;;;;;4.32;2.42;;;16.30;86.90;;;19.76;29.10;95348.00;2235635;56;26222;-60
2021/04/04 10:39:18;;;;;;;8.45;7.18;;;16.50;83.20;;;18.87;29.91;95349.00;2233237;56;26120;-59
2021/04/04 10:42:15;;;;;;;3.53;2.28;;;15.20;91.30;;;17.33;36.78;95339.00;2457884;56;26160;-60
2021/04/04 10:45:12;;;;;;;4.00;2.45;;;16.50;88.70;;;19.13;32.40;95332.00;2457268;56;26183;-59
2021/04/04 10:48:07;;;;;;;3.62;2.40;;;15.90;89.40;;;17.80;35.05;95335.00;2235163;57;26159;-59
2021/04/04 10:50:54;;;;;;;3.72;2.40;;;14.80;89.20;;;17.01;34.56;95333.00;2235754;57;26561;-59
2021/04/04 10:53:41;;;;;;;5.72;2.40;;;13.50;90.20;;;15.32;36.21;95339.00;2235305;57;26192;-60
2021/04/04 10:56:29;;;;;;;2.50;2.20;;;11.50;90.10;;;12.58;38.53;95341.00;2458492;56;26156;-60
2021/04/04 10:59:16;;;;;;;3.72;2.28;;;10.90;91.70;;;12.10;40.81;95337.00;2234893;56;26132;-59
2021/04/04 11:02:04;;;;;;;3.75;2.30;;;11.40;90.40;;;13.71;37.02;95332.00;2457830;56;26180;-60
2021/04/04 11:04:51;;;;;;;5.18;2.47;;;10.50;91.70;;;11.83;41.93;95340.00;2235358;56;26631;-59
2021/04/04 11:07:38;;;;;;;4.73;2.40;;;9.90;91.50;;;10.64;43.07;95334.00;2458984;56;26591;-59
2021/04/04 11:10:24;;;;;;;3.07;2.10;;;9.70;91.80;;;10.94;43.31;95332.00;2233475;57;26178;-59
2021/04/04 11:13:13;;;;;;;3.97;2.50;;;9.70;92.00;;;10.82;43.60;95329.00;2458670;56;26241;-60
2021/04/04 11:16:05;;;;;;;3.47;2.17;;;11.50;93.70;;;13.36;44.40;95326.00;2235333;56;26176;-60
2021/04/04 11:18:54;;;;;;;3.00;2.25;;;13.40;91.80;;;15.88;39.43;95319.00;2454618;56;26598;-59
2021/04/04 11:21:44;;;;;;;2.58;2.12;;;14.30;85.00;;;16.17;33.91;95317.00;2236114;56;26143;-60
2021/04/04 11:24:31;;;;;;;5.07;2.30;;;14.00;89.00;;;16.18;36.08;95313.00;2235310;57;26534;-59
2021/04/04 11:27:17;;;;;;;4.35;2.70;;;13.70;79.40;;;15.76;30.15;95310.00;2234257;56;26135;-60
2021/04/04 11:30:05;;;;;;;3.58;2.20;;;14.60;82.10;;;16.65;31.43;95301.00;2458431;56;26546;-60
2021/04/04 11:33:25;;;;;;;5.07;2.37;;;15.60;82.60;;;18.26;30.40;95295.00;2236001;57;26108;-60
2021/04/04 11:36:13;;;;;;;3.20;2.08;;;16.10;76.20;;;19.71;26.27;95297.00;2458947;56;26252;-60
2021/04/04 11:39:09;;;;;;;3.35;2.12;;;22.20;63.20;;;23.68;21.33;95282.00;2235696;57;26163;-60
2021/04/04 11:41:58;;;;;;;3.62;2.25;;;19.70;64.20;;;20.31;24.06;95286.00;2235552;57;26103;-60
2021/04/04 11:44:53;;;;;;;2.80;1.87;;;16.80;67.20;;;18.14;26.30;95284.00;2236000;57;26664;-60
2021/04/04 11:47:40;;;;;;;3.12;1.90;;;16.30;69.50;;;18.49;26.18;95281.00;2235730;57;26709;-60
2021/04/04 11:50:27;;;;;;;3.50;2.30;;;17.60;66.10;;;19.66;24.75;95274.00;2458293;56;26120;-59
2021/04/04 11:53:42;;;;;;;4.85;2.08;;;15.40;67.20;;;15.85;27.63;95272.00;2236054;57;26100;-60
2021/04/04 11:56:45;;;;;;;5.05;2.10;;;15.60;71.30;;;16.44;28.28;95264.00;2236047;57;26454;-60
2021/04/04 11:59:32;;;;;;;7.00;2.00;;;15.30;78.30;;;16.85;32.12;95272.00;2236540;56;26231;-60
2021/04/04 12:02:20;;;;;;;5.37;2.10;;;15.00;79.30;;;16.68;33.16;95272.00;2458511;56;26491;-61